sensor_id;sensor_type;location;lat;lon;timestamp;pressure;altitude;pressure_sealevel;temperature;humidity
21236;BME280;10775;42.678;26.324;2022-10-31T00:01:44;98893.00;;;17.06;52.75
21236;BME280;10775;42.678;26.324;2022-10-31T00:04:09;98886.38;;;16.73;53.37
21236;BME280;10775;42.678;26.324;2022-10-31T00:06:35;98890.19;;;16.66;53.83
21236;BME280;10775;42.678;26.324;2022-10-31T00:09:02;98883.56;;;16.56;53.80
21236;BME280;10775;42.678;26.324;2022-10-31T00:11:28;98874.75;;;16.57;54.10
21236;BME280;10775;42.678;26.324;2022-10-31T00:13:54;98873.63;;;16.63;53.81
21236;BME280;10775;42.678;26.324;2022-10-31T00:16:20;98870.63;;;16.72;53.57
21236;BME280;10775;42.678;26.324;2022-10-31T00:18:52;98870.06;;;16.64;53.63
21236;BME280;10775;42.678;26.324;2022-10-31T00:21:18;98863.34;;;16.57;53.98
21236;BME280;10775;42.678;26.324;2022-10-31T00:23:44;98871.44;;;16.30;54.87
21236;BME280;10775;42.678;26.324;2022-10-31T00:26:09;98869.66;;;16.30;55.38
21236;BME280;10775;42.678;26.324;2022-10-31T00:28:35;98870.19;;;16.18;55.36
21236;BME280;10775;42.678;26.324;2022-10-31T00:31:01;98872.06;;;16.37;54.98
21236;BME280;10775;42.678;26.324;2022-10-31T00:33:27;98871.72;;;16.24;56.13
21236;BME280;10775;42.678;26.324;2022-10-31T00:35:53;98869.72;;;16.07;55.94
21236;BME280;10775;42.678;26.324;2022-10-31T00:38:18;98865.19;;;16.33;55.06
21236;BME280;10775;42.678;26.324;2022-10-31T00:40:44;98868.75;;;15.88;57.09
21236;BME280;10775;42.678;26.324;2022-10-31T00:43:09;98865.25;;;15.62;57.80
21236;BME280;10775;42.678;26.324;2022-10-31T00:45:34;98859.31;;;16.04;56.24
21236;BME280;10775;42.678;26.324;2022-10-31T00:48:00;98867.41;;;16.86;53.89
21236;BME280;10775;42.678;26.324;2022-10-31T00:50:25;98868.03;;;16.92;53.06
21236;BME280;10775;42.678;26.324;2022-10-31T00:52:51;98872.84;;;16.61;54.23
21236;BME280;10775;42.678;26.324;2022-10-31T00:55:16;98873.09;;;16.33;56.02
21236;BME280;10775;42.678;26.324;2022-10-31T00:57:42;98873.34;;;16.48;54.43
21236;BME280;10775;42.678;26.324;2022-10-31T01:00:08;98865.44;;;16.69;54.59
21236;BME280;10775;42.678;26.324;2022-10-31T01:02:33;98864.91;;;16.61;55.48
21236;BME280;10775;42.678;26.324;2022-10-31T01:04:59;98869.28;;;16.62;54.33
21236;BME280;10775;42.678;26.324;2022-10-31T01:07:24;98867.94;;;16.94;53.08
21236;BME280;10775;42.678;26.324;2022-10-31T01:09:50;98867.09;;;16.29;56.15
21236;BME280;10775;42.678;26.324;2022-10-31T01:12:15;98868.31;;;16.42;56.12
21236;BME280;10775;42.678;26.324;2022-10-31T01:14:44;98867.84;;;16.33;56.01
21236;BME280;10775;42.678;26.324;2022-10-31T01:17:10;98874.09;;;16.30;55.44
21236;BME280;10775;42.678;26.324;2022-10-31T01:19:35;98861.38;;;16.18;56.45
21236;BME280;10775;42.678;26.324;2022-10-31T01:22:01;98866.66;;;16.40;55.76
21236;BME280;10775;42.678;26.324;2022-10-31T01:24:26;98864.88;;;16.62;55.27
21236;BME280;10775;42.678;26.324;2022-10-31T01:26:52;98865.13;;;16.77;53.73
21236;BME280;10775;42.678;26.324;2022-10-31T01:29:17;98861.91;;;16.70;54.44
21236;BME280;10775;42.678;26.324;2022-10-31T01:31:42;98864.56;;;16.70;53.85
21236;BME280;10775;42.678;26.324;2022-10-31T01:34:09;98870.38;;;16.78;53.91
21236;BME280;10775;42.678;26.324;2022-10-31T01:36:39;98858.84;;;17.01;53.25
21236;BME280;10775;42.678;26.324;2022-10-31T01:39:09;98859.13;;;17.15;52.71
21236;BME280;10775;42.678;26.324;2022-10-31T01:41:37;98861.00;;;17.32;52.16
21236;BME280;10775;42.678;26.324;2022-10-31T01:44:43;98856.88;;;17.46;51.77
21236;BME280;10775;42.678;26.324;2022-10-31T01:49:47;98849.41;;;17.74;50.93
21236;BME280;10775;42.678;26.324;2022-10-31T01:52:17;98843.75;;;17.63;51.02
21236;BME280;10775;42.678;26.324;2022-10-31T01:55:06;98849.13;;;17.62;51.03
21236;BME280;10775;42.678;26.324;2022-10-31T01:57:29;98856.97;;;17.63;51.32
21236;BME280;10775;42.678;26.324;2022-10-31T01:59:58;98856.97;;;17.63;51.04
21236;BME280;10775;42.678;26.324;2022-10-31T02:02:24;98851.13;;;17.75;50.63
21236;BME280;10775;42.678;26.324;2022-10-31T02:04:50;98857.47;;;17.71;50.74
21236;BME280;10775;42.678;26.324;2022-10-31T02:07:24;98864.75;;;17.66;50.96
21236;BME280;10775;42.678;26.324;2022-10-31T02:09:50;98868.03;;;17.52;51.42
21236;BME280;10775;42.678;26.324;2022-10-31T02:12:16;98859.25;;;17.52;51.46
21236;BME280;10775;42.678;26.324;2022-10-31T02:14:42;98868.16;;;17.49;51.58
21236;BME280;10775;42.678;26.324;2022-10-31T02:17:08;98869.88;;;17.50;51.19
21236;BME280;10775;42.678;26.324;2022-10-31T02:19:57;98877.44;;;17.39;52.06
21236;BME280;10775;42.678;26.324;2022-10-31T02:28:00;98871.47;;;16.72;54.67
21236;BME280;10775;42.678;26.324;2022-10-31T02:33:20;98865.13;;;16.77;54.16
21236;BME280;10775;42.678;26.324;2022-10-31T02:35:54;98871.44;;;17.15;52.75
21236;BME280;10775;42.678;26.324;2022-10-31T02:40:59;98883.22;;;17.87;51.61
21236;BME280;10775;42.678;26.324;2022-10-31T02:43:32;98884.81;;;17.91;51.12
21236;BME280;10775;42.678;26.324;2022-10-31T02:48:27;98887.47;;;17.70;51.84
21236;BME280;10775;42.678;26.324;2022-10-31T02:50:55;98889.91;;;17.75;51.83
21236;BME280;10775;42.678;26.324;2022-10-31T02:53:21;98899.66;;;17.74;51.03
21236;BME280;10775;42.678;26.324;2022-10-31T02:55:56;98905.63;;;17.59;52.30
21236;BME280;10775;42.678;26.324;2022-10-31T02:58:24;98903.59;;;17.45;52.81
21236;BME280;10775;42.678;26.324;2022-10-31T03:03:21;98913.59;;;17.18;53.78
21236;BME280;10775;42.678;26.324;2022-10-31T03:06:03;98920.31;;;17.05;54.18
21236;BME280;10775;42.678;26.324;2022-10-31T03:08:34;98915.66;;;16.89;54.87
21236;BME280;10775;42.678;26.324;2022-10-31T03:11:04;98908.06;;;16.82;54.66
21236;BME280;10775;42.678;26.324;2022-10-31T03:18:53;98924.72;;;17.45;52.45
21236;BME280;10775;42.678;26.324;2022-10-31T03:23:50;98927.31;;;17.47;52.20
21236;BME280;10775;42.678;26.324;2022-10-31T03:26:17;98934.13;;;17.32;52.71
21236;BME280;10775;42.678;26.324;2022-10-31T03:28:46;98933.50;;;17.25;52.73
21236;BME280;10775;42.678;26.324;2022-10-31T03:31:16;98937.44;;;17.16;53.16
21236;BME280;10775;42.678;26.324;2022-10-31T03:33:42;98927.72;;;17.17;53.06
21236;BME280;10775;42.678;26.324;2022-10-31T03:36:08;98928.78;;;17.13;52.56
21236;BME280;10775;42.678;26.324;2022-10-31T03:38:36;98933.13;;;17.14;53.15
21236;BME280;10775;42.678;26.324;2022-10-31T03:41:03;98928.66;;;17.16;52.99
21236;BME280;10775;42.678;26.324;2022-10-31T03:43:31;98927.84;;;16.93;53.08
21236;BME280;10775;42.678;26.324;2022-10-31T03:45:57;98926.22;;;16.89;53.90
21236;BME280;10775;42.678;26.324;2022-10-31T03:48:23;98924.78;;;16.82;54.21
21236;BME280;10775;42.678;26.324;2022-10-31T03:53:34;98920.09;;;16.89;54.16
21236;BME280;10775;42.678;26.324;2022-10-31T03:58:36;98925.69;;;16.81;54.51
21236;BME280;10775;42.678;26.324;2022-10-31T04:01:04;98930.69;;;16.67;55.24
21236;BME280;10775;42.678;26.324;2022-10-31T04:03:34;98933.63;;;16.81;53.50
21236;BME280;10775;42.678;26.324;2022-10-31T04:06:05;98933.78;;;16.99;52.79
21236;BME280;10775;42.678;26.324;2022-10-31T04:08:33;98948.03;;;17.15;52.69
21236;BME280;10775;42.678;26.324;2022-10-31T04:11:01;98943.75;;;17.12;52.49
21236;BME280;10775;42.678;26.324;2022-10-31T04:13:29;98951.25;;;17.23;52.38
21236;BME280;10775;42.678;26.324;2022-10-31T04:15:59;98957.25;;;16.84;54.48
21236;BME280;10775;42.678;26.324;2022-10-31T04:18:25;98963.69;;;16.77;53.79
21236;BME280;10775;42.678;26.324;2022-10-31T04:21:01;98973.38;;;16.77;55.08
21236;BME280;10775;42.678;26.324;2022-10-31T04:23:27;98977.88;;;16.74;54.17
21236;BME280;10775;42.678;26.324;2022-10-31T04:25:53;98969.97;;;16.74;54.11
21236;BME280;10775;42.678;26.324;2022-10-31T04:28:19;98985.56;;;17.03;53.75
21236;BME280;10775;42.678;26.324;2022-10-31T04:30:44;98985.69;;;17.20;53.87
21236;BME280;10775;42.678;26.324;2022-10-31T04:33:10;98994.38;;;17.02;54.64
21236;BME280;10775;42.678;26.324;2022-10-31T04:35:35;98997.47;;;17.13;54.38
21236;BME280;10775;42.678;26.324;2022-10-31T04:38:01;98991.63;;;17.05;54.45
21236;BME280;10775;42.678;26.324;2022-10-31T04:40:26;98989.19;;;17.00;54.45
21236;BME280;10775;42.678;26.324;2022-10-31T04:42:51;98993.09;;;17.12;53.91
21236;BME280;10775;42.678;26.324;2022-10-31T04:45:17;98996.66;;;17.11;52.73
21236;BME280;10775;42.678;26.324;2022-10-31T04:47:42;98994.25;;;17.05;53.03
21236;BME280;10775;42.678;26.324;2022-10-31T04:50:08;98992.19;;;16.91;55.00
21236;BME280;10775;42.678;26.324;2022-10-31T04:52:38;98995.38;;;16.77;55.17
21236;BME280;10775;42.678;26.324;2022-10-31T04:55:04;98999.19;;;16.92;53.53
21236;BME280;10775;42.678;26.324;2022-10-31T04:57:29;99000.16;;;16.89;53.15
21236;BME280;10775;42.678;26.324;2022-10-31T04:59:54;99011.22;;;16.77;53.96
21236;BME280;10775;42.678;26.324;2022-10-31T05:02:20;99001.78;;;16.93;52.72
21236;BME280;10775;42.678;26.324;2022-10-31T05:04:45;99004.94;;;17.02;52.32
21236;BME280;10775;42.678;26.324;2022-10-31T05:07:11;99014.47;;;16.62;55.32
21236;BME280;10775;42.678;26.324;2022-10-31T05:09:36;99019.31;;;16.72;53.37
21236;BME280;10775;42.678;26.324;2022-10-31T05:12:01;99029.88;;;16.72;53.02
21236;BME280;10775;42.678;26.324;2022-10-31T05:14:27;99029.31;;;16.41;54.31
21236;BME280;10775;42.678;26.324;2022-10-31T05:16:52;99031.44;;;16.78;53.24
21236;BME280;10775;42.678;26.324;2022-10-31T05:19:18;99031.09;;;16.87;52.68
21236;BME280;10775;42.678;26.324;2022-10-31T05:21:43;99030.16;;;16.65;54.30
21236;BME280;10775;42.678;26.324;2022-10-31T05:24:08;99032.44;;;16.52;54.92
21236;BME280;10775;42.678;26.324;2022-10-31T05:26:34;99024.72;;;16.69;53.71
21236;BME280;10775;42.678;26.324;2022-10-31T05:28:59;99045.91;;;16.44;55.96
21236;BME280;10775;42.678;26.324;2022-10-31T05:31:25;99052.69;;;16.51;55.51
21236;BME280;10775;42.678;26.324;2022-10-31T05:33:50;99051.22;;;16.66;53.49
21236;BME280;10775;42.678;26.324;2022-10-31T05:36:15;99053.94;;;16.65;53.42
21236;BME280;10775;42.678;26.324;2022-10-31T05:38:41;99053.75;;;16.69;53.20
21236;BME280;10775;42.678;26.324;2022-10-31T05:41:06;99052.50;;;16.80;53.11
21236;BME280;10775;42.678;26.324;2022-10-31T05:43:32;99058.25;;;16.89;52.60
21236;BME280;10775;42.678;26.324;2022-10-31T05:45:57;99057.47;;;16.64;55.63
21236;BME280;10775;42.678;26.324;2022-10-31T05:48:23;99054.22;;;16.57;53.91
21236;BME280;10775;42.678;26.324;2022-10-31T05:50:48;99058.34;;;16.64;54.05
21236;BME280;10775;42.678;26.324;2022-10-31T05:53:14;99068.03;;;16.40;55.18
21236;BME280;10775;42.678;26.324;2022-10-31T05:55:40;99068.78;;;16.67;54.13
21236;BME280;10775;42.678;26.324;2022-10-31T05:58:06;99069.19;;;16.80;54.27
21236;BME280;10775;42.678;26.324;2022-10-31T06:00:31;99065.88;;;16.97;52.77
21236;BME280;10775;42.678;26.324;2022-10-31T06:02:59;99070.56;;;16.67;54.68
21236;BME280;10775;42.678;26.324;2022-10-31T06:05:27;99075.91;;;16.65;55.93
21236;BME280;10775;42.678;26.324;2022-10-31T06:07:52;99072.22;;;16.69;56.50
21236;BME280;10775;42.678;26.324;2022-10-31T06:10:18;99081.69;;;16.75;55.42
21236;BME280;10775;42.678;26.324;2022-10-31T06:12:46;99085.44;;;16.93;53.41
21236;BME280;10775;42.678;26.324;2022-10-31T06:15:11;99104.09;;;16.88;53.96
21236;BME280;10775;42.678;26.324;2022-10-31T06:17:36;99096.34;;;16.84;56.11
21236;BME280;10775;42.678;26.324;2022-10-31T06:20:02;99094.16;;;16.95;55.82
21236;BME280;10775;42.678;26.324;2022-10-31T06:22:28;99097.88;;;16.89;54.86
21236;BME280;10775;42.678;26.324;2022-10-31T06:24:53;99103.28;;;16.86;56.01
21236;BME280;10775;42.678;26.324;2022-10-31T06:27:19;99098.63;;;16.93;54.63
21236;BME280;10775;42.678;26.324;2022-10-31T06:29:45;99105.09;;;17.08;54.83
21236;BME280;10775;42.678;26.324;2022-10-31T06:32:13;99108.56;;;16.86;56.12
21236;BME280;10775;42.678;26.324;2022-10-31T06:34:39;99099.97;;;16.81;53.89
21236;BME280;10775;42.678;26.324;2022-10-31T06:37:08;99108.25;;;16.94;55.62
21236;BME280;10775;42.678;26.324;2022-10-31T06:39:33;99101.50;;;17.09;54.79
21236;BME280;10775;42.678;26.324;2022-10-31T06:41:59;99103.91;;;16.93;53.77
21236;BME280;10775;42.678;26.324;2022-10-31T06:44:24;99093.69;;;16.84;55.49
21236;BME280;10775;42.678;26.324;2022-10-31T06:46:49;99094.13;;;17.17;52.90
21236;BME280;10775;42.678;26.324;2022-10-31T06:49:15;99097.38;;;17.46;51.36
21236;BME280;10775;42.678;26.324;2022-10-31T06:51:40;99091.00;;;17.51;51.24
21236;BME280;10775;42.678;26.324;2022-10-31T06:54:06;99093.00;;;17.67;50.98
21236;BME280;10775;42.678;26.324;2022-10-31T06:56:31;99090.63;;;17.81;51.19
21236;BME280;10775;42.678;26.324;2022-10-31T06:58:57;99084.06;;;17.49;52.51
21236;BME280;10775;42.678;26.324;2022-10-31T07:01:22;99088.78;;;17.61;52.38
21236;BME280;10775;42.678;26.324;2022-10-31T07:03:48;99083.50;;;17.61;54.26
21236;BME280;10775;42.678;26.324;2022-10-31T07:06:13;99091.19;;;17.47;54.57
21236;BME280;10775;42.678;26.324;2022-10-31T07:08:39;99083.41;;;17.64;54.60
21236;BME280;10775;42.678;26.324;2022-10-31T07:11:04;99089.78;;;17.58;54.70
21236;BME280;10775;42.678;26.324;2022-10-31T07:13:30;99083.28;;;17.67;54.67
21236;BME280;10775;42.678;26.324;2022-10-31T07:15:59;99078.53;;;17.96;54.08
21236;BME280;10775;42.678;26.324;2022-10-31T07:18:24;99080.00;;;18.03;53.90
21236;BME280;10775;42.678;26.324;2022-10-31T07:20:51;99079.72;;;18.09;53.99
21236;BME280;10775;42.678;26.324;2022-10-31T07:23:16;99086.44;;;18.16;54.04
21236;BME280;10775;42.678;26.324;2022-10-31T07:25:42;99086.06;;;18.44;53.42
21236;BME280;10775;42.678;26.324;2022-10-31T07:28:07;99088.22;;;18.55;53.25
21236;BME280;10775;42.678;26.324;2022-10-31T07:30:33;99081.91;;;19.15;51.23
21236;BME280;10775;42.678;26.324;2022-10-31T07:32:59;99087.78;;;19.75;49.96
21236;BME280;10775;42.678;26.324;2022-10-31T07:35:25;99089.19;;;20.33;48.62
21236;BME280;10775;42.678;26.324;2022-10-31T07:37:51;99088.78;;;20.74;47.98
21236;BME280;10775;42.678;26.324;2022-10-31T07:40:17;99087.91;;;21.05;47.31
21236;BME280;10775;42.678;26.324;2022-10-31T07:42:46;99094.06;;;21.21;46.07
21236;BME280;10775;42.678;26.324;2022-10-31T07:45:15;99081.09;;;21.47;45.50
21236;BME280;10775;42.678;26.324;2022-10-31T07:47:48;99075.75;;;22.07;44.41
21236;BME280;10775;42.678;26.324;2022-10-31T07:50:15;99079.25;;;22.08;43.57
21236;BME280;10775;42.678;26.324;2022-10-31T07:52:41;99079.06;;;22.11;43.88
21236;BME280;10775;42.678;26.324;2022-10-31T07:55:06;99086.06;;;22.28;43.99
21236;BME280;10775;42.678;26.324;2022-10-31T07:57:33;99079.84;;;21.68;45.08
21236;BME280;10775;42.678;26.324;2022-10-31T08:00:07;99082.91;;;21.46;45.61
21236;BME280;10775;42.678;26.324;2022-10-31T08:02:34;99083.59;;;21.50;45.45
21236;BME280;10775;42.678;26.324;2022-10-31T08:05:00;99080.56;;;21.86;45.75
21236;BME280;10775;42.678;26.324;2022-10-31T08:07:27;99079.91;;;21.97;44.02
21236;BME280;10775;42.678;26.324;2022-10-31T08:09:53;99088.41;;;22.04;44.33
21236;BME280;10775;42.678;26.324;2022-10-31T08:12:18;99090.50;;;21.83;44.59
21236;BME280;10775;42.678;26.324;2022-10-31T08:14:44;99089.50;;;21.55;45.96
21236;BME280;10775;42.678;26.324;2022-10-31T08:17:10;99090.22;;;21.43;45.08
21236;BME280;10775;42.678;26.324;2022-10-31T08:19:36;99095.28;;;21.47;47.29
21236;BME280;10775;42.678;26.324;2022-10-31T08:22:02;99095.25;;;21.32;45.71
21236;BME280;10775;42.678;26.324;2022-10-31T08:24:28;99106.34;;;21.40;46.60
21236;BME280;10775;42.678;26.324;2022-10-31T08:26:53;99102.16;;;21.66;47.37
21236;BME280;10775;42.678;26.324;2022-10-31T08:29:19;99096.34;;;21.89;45.18
21236;BME280;10775;42.678;26.324;2022-10-31T08:31:44;99095.81;;;21.68;44.83
21236;BME280;10775;42.678;26.324;2022-10-31T08:34:10;99096.75;;;21.67;45.26
21236;BME280;10775;42.678;26.324;2022-10-31T08:36:35;99096.31;;;21.45;45.19
21236;BME280;10775;42.678;26.324;2022-10-31T08:39:00;99097.50;;;21.55;45.37
21236;BME280;10775;42.678;26.324;2022-10-31T08:41:26;99097.06;;;21.47;45.31
21236;BME280;10775;42.678;26.324;2022-10-31T08:43:51;99102.19;;;21.34;46.00
21236;BME280;10775;42.678;26.324;2022-10-31T08:46:17;99098.09;;;21.44;45.59
21236;BME280;10775;42.678;26.324;2022-10-31T08:48:43;99101.09;;;21.84;44.82
21236;BME280;10775;42.678;26.324;2022-10-31T08:51:09;99099.25;;;21.85;44.49
21236;BME280;10775;42.678;26.324;2022-10-31T08:53:35;99100.56;;;21.63;44.55
21236;BME280;10775;42.678;26.324;2022-10-31T08:56:00;99106.53;;;21.67;44.60
21236;BME280;10775;42.678;26.324;2022-10-31T08:58:26;99103.13;;;22.09;44.33
21236;BME280;10775;42.678;26.324;2022-10-31T09:00:52;99098.94;;;22.05;43.95
21236;BME280;10775;42.678;26.324;2022-10-31T09:03:19;99109.25;;;21.96;44.17
21236;BME280;10775;42.678;26.324;2022-10-31T09:05:45;99108.53;;;21.93;44.40
21236;BME280;10775;42.678;26.324;2022-10-31T09:08:11;99102.63;;;21.88;43.98
21236;BME280;10775;42.678;26.324;2022-10-31T09:10:37;99099.19;;;22.31;43.53
21236;BME280;10775;42.678;26.324;2022-10-31T09:13:06;99112.94;;;21.79;44.59
21236;BME280;10775;42.678;26.324;2022-10-31T09:15:33;99100.13;;;21.85;44.62
21236;BME280;10775;42.678;26.324;2022-10-31T09:18:00;99099.75;;;22.36;44.37
21236;BME280;10775;42.678;26.324;2022-10-31T09:20:26;99096.59;;;22.44;44.42
21236;BME280;10775;42.678;26.324;2022-10-31T09:22:55;99098.03;;;22.78;43.11
21236;BME280;10775;42.678;26.324;2022-10-31T09:25:21;99094.00;;;22.99;42.81
21236;BME280;10775;42.678;26.324;2022-10-31T09:27:47;99099.81;;;23.06;42.05
21236;BME280;10775;42.678;26.324;2022-10-31T09:30:12;99097.31;;;23.03;42.67
21236;BME280;10775;42.678;26.324;2022-10-31T09:32:37;99097.94;;;22.51;42.16
21236;BME280;10775;42.678;26.324;2022-10-31T09:35:03;99088.22;;;22.78;43.01
21236;BME280;10775;42.678;26.324;2022-10-31T09:37:28;99087.91;;;22.97;41.80
21236;BME280;10775;42.678;26.324;2022-10-31T09:39:54;99094.00;;;22.99;41.55
21236;BME280;10775;42.678;26.324;2022-10-31T09:45:29;99085.25;;;22.97;42.20
21236;BME280;10775;42.678;26.324;2022-10-31T09:50:27;99086.88;;;23.27;40.95
21236;BME280;10775;42.678;26.324;2022-10-31T09:55:42;99093.09;;;23.13;41.47
21236;BME280;10775;42.678;26.324;2022-10-31T09:58:08;99087.31;;;22.92;41.11
21236;BME280;10775;42.678;26.324;2022-10-31T10:00:38;99076.31;;;22.98;40.92
21236;BME280;10775;42.678;26.324;2022-10-31T10:03:10;99071.03;;;23.11;40.46
21236;BME280;10775;42.678;26.324;2022-10-31T10:05:41;99081.13;;;22.50;42.12
21236;BME280;10775;42.678;26.324;2022-10-31T10:08:12;99074.03;;;22.78;42.17
21236;BME280;10775;42.678;26.324;2022-10-31T10:15:55;99074.63;;;23.10;40.73
21236;BME280;10775;42.678;26.324;2022-10-31T10:18:29;99075.31;;;23.14;40.66
21236;BME280;10775;42.678;26.324;2022-10-31T10:23:31;99061.16;;;23.26;40.82
21236;BME280;10775;42.678;26.324;2022-10-31T10:26:01;99058.53;;;23.39;40.05
21236;BME280;10775;42.678;26.324;2022-10-31T10:28:31;99057.44;;;23.29;40.00
21236;BME280;10775;42.678;26.324;2022-10-31T10:36:46;99057.47;;;23.41;40.42
21236;BME280;10775;42.678;26.324;2022-10-31T10:39:08;99049.47;;;23.81;39.19
21236;BME280;10775;42.678;26.324;2022-10-31T10:41:41;99047.31;;;23.74;39.46
21236;BME280;10775;42.678;26.324;2022-10-31T10:44:08;99050.00;;;23.47;39.56
21236;BME280;10775;42.678;26.324;2022-10-31T10:46:42;99052.81;;;23.18;40.27
21236;BME280;10775;42.678;26.324;2022-10-31T10:49:30;99066.84;;;22.93;40.45
21236;BME280;10775;42.678;26.324;2022-10-31T10:51:58;99055.44;;;23.05;40.21
21236;BME280;10775;42.678;26.324;2022-10-31T10:59:36;99049.28;;;23.44;39.30
21236;BME280;10775;42.678;26.324;2022-10-31T11:02:02;99047.47;;;23.45;38.82
21236;BME280;10775;42.678;26.324;2022-10-31T11:06:57;99052.13;;;23.41;40.80
21236;BME280;10775;42.678;26.324;2022-10-31T11:09:23;99036.00;;;23.70;40.48
21236;BME280;10775;42.678;26.324;2022-10-31T11:11:48;99043.31;;;23.54;40.40
21236;BME280;10775;42.678;26.324;2022-10-31T11:14:15;99048.03;;;23.23;39.85
21236;BME280;10775;42.678;26.324;2022-10-31T11:16:52;99044.31;;;22.84;40.67
21236;BME280;10775;42.678;26.324;2022-10-31T11:19:19;99050.94;;;23.06;39.70
21236;BME280;10775;42.678;26.324;2022-10-31T11:21:46;99040.31;;;23.46;38.91
21236;BME280;10775;42.678;26.324;2022-10-31T11:24:17;99032.91;;;23.36;39.18
21236;BME280;10775;42.678;26.324;2022-10-31T11:26:44;99031.13;;;23.37;39.99
21236;BME280;10775;42.678;26.324;2022-10-31T11:29:14;99037.72;;;23.44;39.00
21236;BME280;10775;42.678;26.324;2022-10-31T11:31:40;99030.03;;;23.79;40.23
21236;BME280;10775;42.678;26.324;2022-10-31T11:34:11;99030.47;;;23.86;38.49
21236;BME280;10775;42.678;26.324;2022-10-31T11:36:38;99020.16;;;23.67;38.61
21236;BME280;10775;42.678;26.324;2022-10-31T11:39:13;99031.25;;;23.48;39.18
21236;BME280;10775;42.678;26.324;2022-10-31T11:41:40;99025.88;;;23.35;39.20
21236;BME280;10775;42.678;26.324;2022-10-31T11:44:13;99018.75;;;23.49;38.88
21236;BME280;10775;42.678;26.324;2022-10-31T11:46:58;99017.88;;;23.88;39.00
21236;BME280;10775;42.678;26.324;2022-10-31T11:51:56;99012.56;;;23.48;40.23
21236;BME280;10775;42.678;26.324;2022-10-31T11:54:27;99012.53;;;24.01;38.18
21236;BME280;10775;42.678;26.324;2022-10-31T11:56:53;99014.94;;;23.53;38.68
21236;BME280;10775;42.678;26.324;2022-10-31T11:59:29;99011.19;;;23.42;39.31
21236;BME280;10775;42.678;26.324;2022-10-31T12:01:55;99012.47;;;23.50;39.18
21236;BME280;10775;42.678;26.324;2022-10-31T12:06:59;99012.72;;;23.72;40.60
21236;BME280;10775;42.678;26.324;2022-10-31T12:09:29;99018.13;;;23.58;39.13
21236;BME280;10775;42.678;26.324;2022-10-31T12:22:21;99015.22;;;23.35;41.59
21236;BME280;10775;42.678;26.324;2022-10-31T12:27:22;99006.59;;;23.44;39.89
21236;BME280;10775;42.678;26.324;2022-10-31T12:30:06;99012.88;;;23.43;40.00
21236;BME280;10775;42.678;26.324;2022-10-31T12:35:04;99017.91;;;23.48;40.06
21236;BME280;10775;42.678;26.324;2022-10-31T12:40:11;99005.13;;;23.66;39.42
21236;BME280;10775;42.678;26.324;2022-10-31T12:50:38;99011.34;;;23.27;39.90
21236;BME280;10775;42.678;26.324;2022-10-31T12:55:47;99018.09;;;23.32;39.48
21236;BME280;10775;42.678;26.324;2022-10-31T13:00:50;99015.38;;;23.19;39.46
21236;BME280;10775;42.678;26.324;2022-10-31T13:03:25;99019.66;;;23.22;40.45
21236;BME280;10775;42.678;26.324;2022-10-31T13:05:53;99023.97;;;23.37;39.83
21236;BME280;10775;42.678;26.324;2022-10-31T13:08:25;99023.03;;;23.11;40.13
21236;BME280;10775;42.678;26.324;2022-10-31T13:11:36;99022.72;;;23.16;42.13
21236;BME280;10775;42.678;26.324;2022-10-31T13:16:16;99021.81;;;23.03;40.40
21236;BME280;10775;42.678;26.324;2022-10-31T13:18:44;99026.13;;;23.18;41.25
21236;BME280;10775;42.678;26.324;2022-10-31T13:21:12;99023.22;;;23.08;40.51
21236;BME280;10775;42.678;26.324;2022-10-31T13:23:40;99024.50;;;23.03;40.91
21236;BME280;10775;42.678;26.324;2022-10-31T13:26:09;99027.91;;;23.05;41.90
21236;BME280;10775;42.678;26.324;2022-10-31T13:30:32;99030.47;;;22.65;41.20
21236;BME280;10775;42.678;26.324;2022-10-31T13:33:14;99042.78;;;22.80;40.89
21236;BME280;10775;42.678;26.324;2022-10-31T13:40:56;99034.09;;;22.64;41.30
21236;BME280;10775;42.678;26.324;2022-10-31T13:43:27;99043.25;;;22.45;41.48
21236;BME280;10775;42.678;26.324;2022-10-31T13:45:54;99034.22;;;22.48;42.17
21236;BME280;10775;42.678;26.324;2022-10-31T13:48:34;99045.72;;;22.34;41.74
21236;BME280;10775;42.678;26.324;2022-10-31T13:51:05;99047.81;;;22.29;41.92
21236;BME280;10775;42.678;26.324;2022-10-31T13:53:44;99050.88;;;22.23;42.61
21236;BME280;10775;42.678;26.324;2022-10-31T13:56:31;99043.25;;;22.17;44.04
21236;BME280;10775;42.678;26.324;2022-10-31T14:01:27;99045.97;;;22.15;42.57
21236;BME280;10775;42.678;26.324;2022-10-31T14:04:07;99052.34;;;22.12;42.55
21236;BME280;10775;42.678;26.324;2022-10-31T14:12:22;99065.84;;;22.09;43.13
21236;BME280;10775;42.678;26.324;2022-10-31T14:14:54;99063.97;;;22.11;43.46
21236;BME280;10775;42.678;26.324;2022-10-31T14:17:26;99071.84;;;22.13;42.56
21236;BME280;10775;42.678;26.324;2022-10-31T14:20:22;99076.69;;;22.06;44.41
21236;BME280;10775;42.678;26.324;2022-10-31T14:22:46;99069.44;;;21.94;43.00
21236;BME280;10775;42.678;26.324;2022-10-31T14:25:41;99070.78;;;21.87;43.10
21236;BME280;10775;42.678;26.324;2022-10-31T14:28:33;99067.84;;;21.91;43.66
21236;BME280;10775;42.678;26.324;2022-10-31T14:30:59;99068.94;;;21.87;45.45
21236;BME280;10775;42.678;26.324;2022-10-31T14:33:28;99071.50;;;21.75;43.60
21236;BME280;10775;42.678;26.324;2022-10-31T14:36:10;99062.66;;;21.74;43.79
21236;BME280;10775;42.678;26.324;2022-10-31T14:38:50;99073.38;;;21.73;43.63
21236;BME280;10775;42.678;26.324;2022-10-31T14:52:24;99076.88;;;21.59;45.44
21236;BME280;10775;42.678;26.324;2022-10-31T14:54:53;99085.38;;;21.49;46.48
21236;BME280;10775;42.678;26.324;2022-10-31T14:57:42;99083.59;;;21.34;44.72
21236;BME280;10775;42.678;26.324;2022-10-31T15:00:19;99102.03;;;21.37;45.19
21236;BME280;10775;42.678;26.324;2022-10-31T15:05:22;99086.94;;;21.38;46.52